Aeroporto :







RITROVATECI SU...

 
LOGIN :

Iscrizione | Disclaimer

   EN    FR    IT 

 









Sommario :    VFR   VFR Marginale   IFR   IFR Intensivo   IFR Molto Intensivo
Visibilità : 
Base nubi : 
>= 8 km
>= 3000ft
5 / 8 km
1000 / 3000 ft
1500m / 5 km
500 / 1000 ft
800 / 1500m
200 / 500 ft
< 800m
< 200 ft
Simboli :   Temporali  Nebbia  Neve Forte  Precipitazioni Forti  Vento > 20 kt






- Altitudine del aeroporto : 76 ft
- Codice IATA : PWM


KPWM - Portland International Jetport

ULTIMO METAR :
  • 160651Z AUTO 29016G27KT 10SM CLR M02/M14 A2998 RMK AO2 PK WND 28027/0644 SLP155 T10221144

METARs OBSOLETI :
  • 160551Z AUTO 27012G19KT 10SM CLR M02/M14 A2998 RMK AO2 SLP152 T10171144 10033 21022 51040
  • 160451Z 29020G29KT 10SM CLR M01/M14 A2994 RMK AO2 PK WND 31029/0449 SLP140 LAST T10111139 401221017

TAF KPWM
Valido dal 16 a 06 ore il 17 a 06 ore UTC


160520Z 1606/1706 29017G27KT P6SM SKC
FM160800 27010KT P6SM SKC



MetMap, La meteo Aeronautica in un colpo d'occhio ! - Copyright ORBIFLY Dicembre 2007 - Disclaimer

ORBIFLY MET'MAP TEAM :

Programmazione e sviluppo : Alexandra Zaïnal
Concezione : Baudouin d'Aumeries
Aiuto per la programmazione : Marc-Olivier Méhu
Supporto tecnico e logistico : Manuel Goepfert
Aiuto per la traduzione : Arnaldo La Scala

Contatto : metmap@orbifly.com




FONTI E CREDITI :

   NOAA